Time;durP1;ratioP1;P1;durP2;ratioP2;P2;SDS_P1;SDS_P2;PMS_P1;PMS_P2;Temp;Humidity;BMP_temperature;BMP_pressure;BME280_temperature;BME280_humidity;BME280_pressure;Samples;Min_cycle;Max_cycle;Signal;HPM_P1;HPM_P2
2021/12/17 00:05:09;;;;;;;12.13;10.90;;;4.70;99.90;;;;;;5040452;28;20216;-88
2021/12/17 00:07:36;;;;;;;14.53;12.40;;;4.70;99.90;;;;;;5054377;28;20564;-90
2021/12/17 00:10:10;;;;;;;13.50;12.17;;;4.80;99.90;;;;;;5057589;28;20188;-90
2021/12/17 00:12:36;;;;;;;12.87;11.47;;;4.90;99.90;;;;;;5053604;28;20591;-90
2021/12/17 00:15:03;;;;;;;13.70;12.17;;;5.00;99.90;;;;;;5053778;28;20192;-90
2021/12/17 00:17:31;;;;;;;19.20;12.37;;;5.10;99.90;;;;;;5052982;28;20196;-90
2021/12/17 00:52:33;;;;;;;15.50;11.77;;;5.30;99.90;;;;;;5050525;28;20188;-90
2021/12/17 00:54:58;;;;;;;15.70;12.67;;;5.30;99.90;;;;;;5055169;28;20280;-90
2021/12/17 00:57:35;;;;;;;16.37;13.13;;;5.30;99.90;;;;;;5056800;28;20225;-90
2021/12/17 01:00:05;;;;;;;13.27;11.10;;;5.30;99.90;;;;;;5052793;28;20216;-90
2021/12/17 01:02:34;;;;;;;13.77;12.37;;;5.30;99.90;;;;;;5053843;28;20252;-90
2021/12/17 01:05:05;;;;;;;13.57;12.27;;;5.40;99.90;;;;;;5046213;28;20215;-90
2021/12/17 01:07:34;;;;;;;14.80;12.63;;;5.40;99.90;;;;;;5052566;28;20199;-90
2021/12/17 01:10:03;;;;;;;15.00;11.73;;;5.40;99.90;;;;;;5051121;28;20180;-90
2021/12/17 01:12:28;;;;;;;14.93;13.17;;;5.40;99.90;;;;;;5053478;28;20189;-90
2021/12/17 01:14:55;;;;;;;14.50;12.27;;;5.40;99.90;;;;;;5056484;28;20276;-90
2021/12/17 01:17:23;;;;;;;13.70;11.77;;;5.40;99.90;;;;;;5034148;28;20203;-90
2021/12/17 01:36:13;;;;;;;14.17;12.03;;;5.50;99.90;;;;;;5049602;28;20246;-90
2021/12/17 01:43:58;;;;;;;15.03;12.07;;;5.50;99.90;;;;;;5062581;28;20194;-89
2021/12/17 01:46:30;;;;;;;14.87;12.20;;;5.50;99.90;;;;;;5056516;28;20216;-90
2021/12/17 01:59:59;;;;;;;17.77;13.07;;;5.50;99.90;;;;;;5052679;28;20203;-90
2021/12/17 02:02:26;;;;;;;13.87;11.97;;;5.60;99.90;;;;;;5036497;28;20207;-90
2021/12/17 02:04:52;;;;;;;12.80;11.47;;;5.60;99.90;;;;;;5057991;28;20215;-90
2021/12/17 02:07:17;;;;;;;13.30;11.90;;;5.60;99.90;;;;;;5041976;28;20663;-90
2021/12/17 02:21:13;;;;;;;14.80;11.90;;;5.80;99.90;;;;;;5060185;28;20197;-89
2021/12/17 02:31:34;;;;;;;14.07;12.47;;;5.90;99.90;;;;;;5070275;28;20199;-89
2021/12/17 02:34:23;;;;;;;15.17;12.33;;;5.90;99.90;;;;;;5080024;28;20232;-89
2021/12/17 02:36:50;;;;;;;15.10;12.33;;;5.90;99.90;;;;;;5043584;28;20200;-90
2021/12/17 02:47:12;;;;;;;14.03;12.53;;;5.90;99.90;;;;;;5077263;28;20213;-89
2021/12/17 02:49:41;;;;;;;13.70;12.20;;;5.90;99.90;;;;;;5059286;28;20196;-89
2021/12/17 02:52:08;;;;;;;16.83;12.40;;;5.90;99.90;;;;;;5056625;28;20192;-89
2021/12/17 02:54:35;;;;;;;13.70;12.23;;;5.90;99.90;;;;;;5058683;28;20287;-90
2021/12/17 02:57:03;;;;;;;14.30;12.03;;;5.80;99.90;;;;;;5057640;28;20267;-89
2021/12/17 02:59:31;;;;;;;14.33;12.93;;;5.90;99.90;;;;;;5046736;28;20266;-89
2021/12/17 03:01:57;;;;;;;14.50;12.00;;;5.90;99.90;;;;;;5048124;28;20200;-89
2021/12/17 03:04:25;;;;;;;17.17;13.60;;;5.90;99.90;;;;;;5037003;28;20212;-89
2021/12/17 03:06:51;;;;;;;15.50;12.57;;;5.90;99.90;;;;;;5055001;28;20813;-89
2021/12/17 03:09:22;;;;;;;14.37;12.80;;;5.90;99.90;;;;;;5037908;28;20224;-89
2021/12/17 03:11:48;;;;;;;13.87;12.07;;;5.90;99.90;;;;;;5074770;28;20597;-90
2021/12/17 03:14:14;;;;;;;14.10;12.60;;;5.90;99.90;;;;;;5026458;28;20221;-91
2021/12/17 03:16:54;;;;;;;13.17;11.77;;;5.90;99.90;;;;;;5056490;28;20291;-91
2021/12/17 03:25:05;;;;;;;14.13;12.63;;;5.90;99.90;;;;;;5034041;28;20744;-91
2021/12/17 03:27:31;;;;;;;14.63;11.73;;;5.90;99.90;;;;;;5060029;28;20196;-90
2021/12/17 03:29:56;;;;;;;14.20;12.33;;;5.90;99.90;;;;;;5038299;28;20275;-89
2021/12/17 03:32:22;;;;;;;13.10;11.70;;;5.80;99.90;;;;;;5058145;28;20197;-89
2021/12/17 03:34:48;;;;;;;15.47;12.43;;;5.90;99.90;;;;;;5059049;28;20248;-89
2021/12/17 03:37:14;;;;;;;13.63;11.67;;;5.90;99.90;;;;;;5052020;28;20195;-89
2021/12/17 03:39:40;;;;;;;18.73;12.30;;;5.80;99.90;;;;;;5036257;28;20207;-89
2021/12/17 03:42:07;;;;;;;14.17;12.23;;;5.90;99.90;;;;;;5067639;28;20202;-89
2021/12/17 03:44:33;;;;;;;14.33;12.30;;;5.90;99.90;;;;;;5054537;28;20204;-90
2021/12/17 03:47:00;;;;;;;14.23;12.40;;;5.80;99.90;;;;;;5047763;28;20208;-89
2021/12/17 03:49:26;;;;;;;14.97;12.97;;;5.80;99.90;;;;;;5050688;28;20200;-89
2021/12/17 03:52:04;;;;;;;14.80;11.93;;;5.80;99.90;;;;;;5039035;28;20211;-89
2021/12/17 03:54:33;;;;;;;14.63;12.57;;;5.80;99.90;;;;;;5036277;28;20220;-89
2021/12/17 03:57:00;;;;;;;13.53;11.80;;;5.80;99.90;;;;;;5055021;28;20238;-90
2021/12/17 03:59:26;;;;;;;14.37;12.37;;;5.80;99.90;;;;;;5055164;28;20196;-90
2021/12/17 04:01:51;;;;;;;14.93;12.73;;;5.80;99.90;;;;;;5055171;28;20216;-90
2021/12/17 04:04:17;;;;;;;15.13;12.90;;;5.80;99.90;;;;;;5055186;28;20188;-90
2021/12/17 04:06:43;;;;;;;17.30;13.00;;;5.80;99.90;;;;;;5046316;28;20209;-90
2021/12/17 04:09:09;;;;;;;14.83;13.13;;;5.80;99.90;;;;;;5045241;28;20725;-89
2021/12/17 04:11:35;;;;;;;17.43;13.87;;;5.80;99.90;;;;;;5052579;28;20188;-89
2021/12/17 04:14:01;;;;;;;14.17;12.70;;;5.80;99.90;;;;;;5037165;28;20559;-89
2021/12/17 04:16:30;;;;;;;16.57;13.13;;;5.80;99.90;;;;;;5055072;28;20220;-89
2021/12/17 04:18:59;;;;;;;14.20;11.47;;;5.80;99.90;;;;;;5033092;28;20192;-89
2021/12/17 04:21:25;;;;;;;15.20;13.27;;;5.80;99.90;;;;;;5035923;28;20823;-89
2021/12/17 04:23:53;;;;;;;13.93;12.43;;;5.80;99.90;;;;;;5055615;28;20203;-89
2021/12/17 04:26:21;;;;;;;14.07;12.30;;;5.90;99.90;;;;;;5044763;28;20266;-89
2021/12/17 04:28:50;;;;;;;15.63;12.57;;;5.90;99.90;;;;;;5036837;28;20192;-90
2021/12/17 04:31:19;;;;;;;13.13;11.63;;;6.00;99.90;;;;;;5048437;28;20183;-89
2021/12/17 04:33:45;;;;;;;15.00;12.80;;;6.00;99.90;;;;;;5061034;28;20209;-89
2021/12/17 04:36:15;;;;;;;14.67;12.53;;;6.00;99.90;;;;;;5071647;28;20211;-89
2021/12/17 04:38:41;;;;;;;13.77;12.20;;;6.00;99.90;;;;;;5060529;28;20249;-89
2021/12/17 04:44:10;;;;;;;15.10;12.97;;;6.00;99.90;;;;;;5068259;28;20187;-89
2021/12/17 04:46:54;;;;;;;14.93;12.17;;;5.90;99.90;;;;;;5053518;28;20271;-89
2021/12/17 04:57:36;;;;;;;14.17;11.83;;;5.90;99.90;;;;;;5053161;28;20895;-89
2021/12/17 05:00:16;;;;;;;13.57;11.27;;;5.90;99.90;;;;;;5049224;28;20242;-89
2021/12/17 05:02:47;;;;;;;13.07;11.67;;;6.00;99.90;;;;;;5047230;28;20218;-89
2021/12/17 05:05:13;;;;;;;12.50;11.20;;;6.00;99.90;;;;;;5053630;28;20212;-90
2021/12/17 05:07:45;;;;;;;13.57;12.17;;;6.10;99.90;;;;;;5050321;28;20192;-89
2021/12/17 05:11:01;;;;;;;13.30;11.90;;;6.10;99.90;;;;;;5072566;28;20236;-89
2021/12/17 05:18:36;;;;;;;13.20;11.37;;;6.30;99.90;;;;;;5075671;28;20190;-90
2021/12/17 05:21:07;;;;;;;12.60;11.40;;;6.30;99.90;;;;;;5075195;28;20168;-90
2021/12/17 05:23:37;;;;;;;13.03;11.70;;;6.30;99.90;;;;;;5040979;28;20200;-90
2021/12/17 05:26:05;;;;;;;11.97;10.63;;;6.30;99.90;;;;;;5063479;28;20218;-90
2021/12/17 05:28:31;;;;;;;16.67;11.03;;;6.30;99.90;;;;;;5041590;28;20192;-90
2021/12/17 05:30:57;;;;;;;11.93;10.73;;;6.40;99.90;;;;;;5057794;28;20218;-90
2021/12/17 05:33:24;;;;;;;11.00;10.00;;;6.30;99.90;;;;;;5056044;28;20192;-90
2021/12/17 05:35:51;;;;;;;12.40;11.23;;;6.30;99.90;;;;;;5053689;28;20204;-89
2021/12/17 05:38:18;;;;;;;11.27;10.03;;;6.40;99.90;;;;;;5057467;28;20180;-90
2021/12/17 05:40:45;;;;;;;12.13;11.00;;;6.50;99.90;;;;;;5061985;28;20268;-90
2021/12/17 05:43:12;;;;;;;11.67;10.47;;;6.50;99.90;;;;;;5055608;28;20234;-90
2021/12/17 05:48:17;;;;;;;11.43;10.20;;;6.60;99.90;;;;;;5041753;28;20269;-90
2021/12/17 05:50:45;;;;;;;12.43;11.13;;;6.50;99.90;;;;;;5060618;28;20944;-90
2021/12/17 05:53:11;;;;;;;11.27;10.17;;;6.50;99.90;;;;;;5059325;28;20570;-89
2021/12/17 05:55:38;;;;;;;14.53;10.87;;;6.60;99.90;;;;;;5042936;28;20219;-90
2021/12/17 05:58:06;;;;;;;12.17;10.90;;;6.60;99.90;;;;;;5063402;28;20715;-90
2021/12/17 06:00:33;;;;;;;11.97;10.70;;;6.50;99.90;;;;;;5062487;28;20192;-89
2021/12/17 06:03:00;;;;;;;11.77;9.83;;;6.60;99.90;;;;;;5045157;28;20622;-90
2021/12/17 06:05:27;;;;;;;11.23;9.93;;;6.60;99.90;;;;;;5041571;28;20216;-89
2021/12/17 06:07:53;;;;;;;10.67;9.57;;;6.50;99.90;;;;;;5038146;28;20196;-89
2021/12/17 06:10:20;;;;;;;17.97;15.27;;;6.50;99.90;;;;;;5057942;28;20301;-90
2021/12/17 06:12:46;;;;;;;13.27;11.37;;;6.50;99.90;;;;;;5040036;28;20253;-90
2021/12/17 06:15:14;;;;;;;15.97;14.10;;;6.60;99.90;;;;;;5063721;28;20216;-89
2021/12/17 06:17:41;;;;;;;16.97;14.80;;;6.70;99.90;;;;;;5061297;28;20282;-89
2021/12/17 06:20:10;;;;;;;17.90;15.47;;;6.60;99.90;;;;;;5059998;28;20187;-89
2021/12/17 06:22:36;;;;;;;33.03;24.97;;;6.60;99.90;;;;;;5053137;28;20691;-90
2021/12/17 06:25:04;;;;;;;24.00;21.63;;;6.60;99.90;;;;;;5049765;28;20228;-89
2021/12/17 06:27:30;;;;;;;12.00;10.73;;;6.60;99.90;;;;;;5050066;28;20192;-89
2021/12/17 06:29:57;;;;;;;9.70;8.70;;;6.60;99.90;;;;;;5060396;28;20219;-90
2021/12/17 06:32:23;;;;;;;11.37;10.17;;;6.60;99.90;;;;;;5052615;28;20188;-91
2021/12/17 06:34:50;;;;;;;13.00;11.80;;;6.50;99.90;;;;;;5027112;28;20196;-90
2021/12/17 06:37:16;;;;;;;11.37;10.17;;;6.50;99.90;;;;;;5045384;28;20199;-90
2021/12/17 06:39:42;;;;;;;10.37;9.37;;;6.50;99.90;;;;;;5051616;28;20192;-89
2021/12/17 06:42:08;;;;;;;9.37;8.47;;;6.50;99.90;;;;;;5054696;28;20694;-87
2021/12/17 06:44:34;;;;;;;10.33;8.93;;;6.50;99.90;;;;;;5046565;28;20224;-89
2021/12/17 06:47:06;;;;;;;11.90;10.70;;;6.50;99.90;;;;;;5052640;28;20218;-89
2021/12/17 06:55:01;;;;;;;9.87;8.87;;;6.40;99.90;;;;;;5063467;28;20198;-88
2021/12/17 07:10:56;;;;;;;12.97;10.83;;;6.40;99.90;;;;;;5054779;28;20230;-90
2021/12/17 07:39:51;;;;;;;9.23;7.97;;;6.60;98.30;;;;;;5036680;28;20209;-89
2021/12/17 07:42:17;;;;;;;9.33;8.27;;;6.60;98.50;;;;;;5056260;28;20200;-89
2021/12/17 07:44:43;;;;;;;8.43;7.60;;;6.60;98.50;;;;;;5019049;28;20280;-89
2021/12/17 07:47:08;;;;;;;8.47;7.67;;;6.60;98.00;;;;;;5039876;28;20242;-89
2021/12/17 07:49:34;;;;;;;8.63;7.83;;;6.60;97.90;;;;;;5038086;28;20698;-89
2021/12/17 07:52:00;;;;;;;8.07;7.27;;;6.60;97.90;;;;;;5057528;28;20184;-89
2021/12/17 07:54:26;;;;;;;11.70;7.70;;;6.70;97.60;;;;;;5048866;28;20253;-88
2021/12/17 07:56:52;;;;;;;7.80;7.10;;;6.70;97.40;;;;;;5070318;28;20204;-89
2021/12/17 07:59:18;;;;;;;9.27;8.17;;;6.70;97.10;;;;;;5037289;28;20200;-89
2021/12/17 08:01:43;;;;;;;8.20;7.40;;;6.70;97.50;;;;;;5041318;28;20253;-90
2021/12/17 08:04:10;;;;;;;9.20;7.57;;;6.70;96.80;;;;;;5072499;28;20181;-88
2021/12/17 08:06:36;;;;;;;12.53;8.13;;;6.70;96.60;;;;;;5075672;28;20192;-88
2021/12/17 08:09:04;;;;;;;10.37;8.20;;;6.70;96.90;;;;;;5023422;28;20255;-90
2021/12/17 08:11:36;;;;;;;10.50;8.23;;;6.80;97.50;;;;;;5053411;28;20223;-89
2021/12/17 08:14:02;;;;;;;9.50;8.53;;;6.80;96.80;;;;;;5058272;28;20199;-89
2021/12/17 08:16:36;;;;;;;9.33;8.43;;;6.70;97.00;;;;;;5055743;28;20216;-90
2021/12/17 08:32:02;;;;;;;8.30;7.20;;;6.80;94.00;;;;;;5055718;28;20275;-89
2021/12/17 08:34:28;;;;;;;8.20;7.30;;;6.80;93.60;;;;;;5054350;28;20188;-90
2021/12/17 08:36:55;;;;;;;7.93;7.13;;;6.90;92.70;;;;;;5032253;28;20303;-89
2021/12/17 08:39:22;;;;;;;7.77;6.97;;;6.90;92.80;;;;;;5024301;28;20185;-89
2021/12/17 08:41:53;;;;;;;10.67;9.57;;;6.90;92.80;;;;;;5015733;28;20189;-89
2021/12/17 08:44:20;;;;;;;8.17;7.37;;;7.00;93.00;;;;;;5023309;28;20196;-90
2021/12/17 08:46:46;;;;;;;9.87;8.87;;;7.00;92.30;;;;;;5037288;28;20244;-89
2021/12/17 08:49:12;;;;;;;8.33;7.53;;;7.00;92.80;;;;;;5057947;28;20188;-90
2021/12/17 08:51:40;;;;;;;7.50;6.80;;;6.90;92.60;;;;;;5032875;28;20330;-90
2021/12/17 08:54:06;;;;;;;9.03;7.83;;;6.80;92.60;;;;;;5052642;28;20200;-90
2021/12/17 08:56:34;;;;;;;19.37;15.57;;;6.80;92.70;;;;;;5036817;28;20212;-90
2021/12/17 08:59:05;;;;;;;9.77;8.77;;;6.90;92.80;;;;;;5059230;28;20183;-90
2021/12/17 09:01:31;;;;;;;11.97;9.53;;;6.90;92.60;;;;;;5042440;28;20188;-89
2021/12/17 09:03:57;;;;;;;10.10;9.10;;;7.00;92.40;;;;;;5059131;28;20258;-90
2021/12/17 09:06:26;;;;;;;8.90;8.07;;;7.00;92.00;;;;;;5037659;28;20211;-90
2021/12/17 09:08:54;;;;;;;8.77;7.87;;;7.10;91.80;;;;;;5048292;28;20184;-88
2021/12/17 09:11:22;;;;;;;11.53;8.47;;;7.10;92.10;;;;;;5078654;28;20184;-88
2021/12/17 09:13:48;;;;;;;8.33;6.70;;;7.20;91.20;;;;;;5055463;28;20182;-89
2021/12/17 09:16:14;;;;;;;7.97;7.27;;;7.10;91.50;;;;;;5060214;28;20215;-88
2021/12/17 09:18:40;;;;;;;7.47;6.77;;;7.20;90.80;;;;;;5064688;28;20192;-90
2021/12/17 09:21:06;;;;;;;11.17;7.67;;;7.30;90.30;;;;;;5045285;28;20192;-89
2021/12/17 09:23:32;;;;;;;10.07;7.00;;;7.40;90.30;;;;;;5062789;28;20215;-89
2021/12/17 09:25:58;;;;;;;9.57;8.10;;;7.40;90.10;;;;;;5024598;28;20259;-90
2021/12/17 09:28:23;;;;;;;7.30;6.60;;;7.30;90.40;;;;;;5058959;28;20192;-90
2021/12/17 09:30:50;;;;;;;10.23;6.90;;;7.50;89.40;;;;;;5058609;28;20227;-90
2021/12/17 09:33:17;;;;;;;8.17;6.97;;;7.50;89.50;;;;;;5059431;28;20193;-90
2021/12/17 09:35:43;;;;;;;8.13;7.33;;;7.50;89.50;;;;;;5058281;28;20216;-89
2021/12/17 09:38:09;;;;;;;10.63;7.80;;;7.60;89.50;;;;;;5045182;28;20203;-90
2021/12/17 09:40:35;;;;;;;7.90;7.20;;;7.80;89.00;;;;;;5062074;28;20647;-90
2021/12/17 09:43:02;;;;;;;8.37;7.50;;;7.80;88.80;;;;;;5061296;28;20196;-90
2021/12/17 09:45:27;;;;;;;8.00;7.20;;;7.90;88.10;;;;;;5059855;28;20294;-89
2021/12/17 09:47:54;;;;;;;7.97;7.17;;;8.00;87.60;;;;;;5058623;28;20223;-90
2021/12/17 09:50:21;;;;;;;8.27;7.53;;;8.00;87.40;;;;;;5061126;28;20188;-90
2021/12/17 09:52:47;;;;;;;8.10;7.30;;;8.10;86.90;;;;;;5058000;28;20200;-89
2021/12/17 09:55:13;;;;;;;7.87;6.63;;;8.20;86.30;;;;;;5054398;28;20216;-89
2021/12/17 09:57:39;;;;;;;6.97;6.20;;;8.50;85.60;;;;;;5026053;28;20227;-89
2021/12/17 10:00:19;;;;;;;7.67;6.87;;;8.80;84.30;;;;;;5060536;28;20260;-90
2021/12/17 10:02:46;;;;;;;8.20;7.40;;;9.20;83.20;;;;;;5041544;28;20217;-89
2021/12/17 10:05:22;;;;;;;7.67;6.97;;;9.40;82.10;;;;;;5043074;28;20212;-89
2021/12/17 10:07:57;;;;;;;7.87;7.17;;;9.50;81.40;;;;;;5039187;28;20211;-89
2021/12/17 10:10:37;;;;;;;10.90;7.03;;;9.60;80.30;;;;;;5056084;28;20566;-89
2021/12/17 10:13:08;;;;;;;7.27;6.57;;;9.80;79.00;;;;;;5055725;28;20199;-89
2021/12/17 10:15:36;;;;;;;7.37;6.67;;;10.00;79.40;;;;;;5054515;28;20216;-89
2021/12/17 10:18:02;;;;;;;6.90;6.13;;;10.20;76.20;;;;;;5041550;28;20454;-89
2021/12/17 10:20:31;;;;;;;7.60;6.90;;;10.30;74.90;;;;;;5055506;28;20262;-89
2021/12/17 10:23:07;;;;;;;7.73;7.00;;;10.50;73.50;;;;;;5045237;28;20205;-89
2021/12/17 10:25:41;;;;;;;7.50;6.77;;;10.50;71.80;;;;;;5056815;28;20246;-89
2021/12/17 10:28:07;;;;;;;6.40;5.80;;;10.60;69.60;;;;;;5039371;28;20238;-89
2021/12/17 10:30:36;;;;;;;7.20;6.50;;;10.50;70.00;;;;;;5058053;28;20206;-90
2021/12/17 10:33:05;;;;;;;7.97;6.90;;;10.60;69.70;;;;;;5051629;28;20227;-89
2021/12/17 10:35:34;;;;;;;7.03;6.33;;;10.60;70.20;;;;;;5054458;28;20213;-90
2021/12/17 10:38:08;;;;;;;6.70;6.10;;;10.80;69.50;;;;;;5052784;28;20203;-89
2021/12/17 10:40:44;;;;;;;7.73;6.53;;;11.10;68.50;;;;;;5067743;28;20180;-90
2021/12/17 10:43:25;;;;;;;6.70;6.10;;;11.00;67.90;;;;;;5062740;28;20188;-89
2021/12/17 10:51:24;;;;;;;6.33;5.83;;;10.90;68.10;;;;;;5077737;28;20219;-88
2021/12/17 10:53:53;;;;;;;7.57;6.50;;;11.20;67.70;;;;;;5068334;28;20668;-87
2021/12/17 10:56:20;;;;;;;7.90;7.27;;;11.40;66.80;;;;;;5054735;28;20208;-88
2021/12/17 10:59:25;;;;;;;7.40;6.70;;;11.30;66.70;;;;;;5032828;28;20201;-88
2021/12/17 11:01:59;;;;;;;7.60;6.80;;;10.90;68.60;;;;;;4957685;28;20924;-89
2021/12/17 11:04:27;;;;;;;7.53;6.50;;;10.80;69.00;;;;;;5024930;28;20214;-88
2021/12/17 11:06:54;;;;;;;6.80;6.20;;;10.70;69.00;;;;;;5055060;28;20224;-88
2021/12/17 11:09:43;;;;;;;7.07;6.47;;;10.50;70.10;;;;;;5055994;28;20203;-89
2021/12/17 11:12:17;;;;;;;7.03;6.30;;;10.70;69.90;;;;;;5053256;28;20187;-89
2021/12/17 11:14:45;;;;;;;7.80;6.37;;;10.80;68.70;;;;;;5051658;28;20211;-88
2021/12/17 11:17:12;;;;;;;7.10;6.47;;;10.70;69.20;;;;;;5030862;28;20220;-89
2021/12/17 11:19:40;;;;;;;7.33;6.63;;;10.80;69.40;;;;;;5052863;28;20200;-88
2021/12/17 11:22:06;;;;;;;6.50;5.90;;;10.70;69.10;;;;;;5053680;28;20180;-89
2021/12/17 11:24:36;;;;;;;7.50;6.80;;;10.60;69.80;;;;;;5054461;28;20256;-89
2021/12/17 11:27:04;;;;;;;7.10;6.47;;;10.70;70.00;;;;;;5072893;28;20250;-88
2021/12/17 11:29:30;;;;;;;6.40;5.80;;;11.00;69.10;;;;;;5062616;28;20642;-89
2021/12/17 11:31:59;;;;;;;7.23;6.33;;;10.80;69.00;;;;;;5067273;28;20192;-88
2021/12/17 11:34:25;;;;;;;7.57;6.27;;;11.00;69.10;;;;;;5073618;28;20188;-88
2021/12/17 11:36:52;;;;;;;8.87;6.90;;;11.10;68.20;;;;;;5035104;28;20212;-89
2021/12/17 11:39:25;;;;;;;7.07;6.20;;;11.30;68.60;;;;;;5022193;28;20220;-89
2021/12/17 11:41:54;;;;;;;7.77;6.40;;;11.40;68.30;;;;;;5039245;28;20194;-90
2021/12/17 11:44:27;;;;;;;7.80;7.00;;;11.40;68.20;;;;;;5051157;28;20534;-89
2021/12/17 11:47:04;;;;;;;7.67;6.97;;;11.60;67.30;;;;;;5037227;28;20739;-90
2021/12/17 11:49:36;;;;;;;6.87;6.23;;;11.80;67.00;;;;;;5025625;28;20221;-90
2021/12/17 11:52:03;;;;;;;7.70;7.00;;;11.90;65.90;;;;;;5037018;28;20204;-90
2021/12/17 11:54:34;;;;;;;8.57;6.47;;;11.70;66.50;;;;;;5037880;28;20205;-90
2021/12/17 11:57:08;;;;;;;7.67;7.00;;;11.50;67.00;;;;;;5050473;28;20244;-90
2021/12/17 11:59:37;;;;;;;8.07;7.13;;;11.40;67.40;;;;;;5058879;28;20193;-89
2021/12/17 12:02:15;;;;;;;8.47;7.07;;;11.50;67.40;;;;;;5052573;28;20217;-90
2021/12/17 12:04:55;;;;;;;7.00;6.30;;;11.80;66.40;;;;;;5052758;28;20224;-90
2021/12/17 12:07:23;;;;;;;6.87;6.17;;;11.80;65.90;;;;;;5051558;28;20190;-90
2021/12/17 12:09:56;;;;;;;7.43;6.73;;;11.80;66.10;;;;;;5042586;28;20209;-90
2021/12/17 12:12:26;;;;;;;7.90;7.20;;;11.60;66.10;;;;;;5050325;28;20201;-91
2021/12/17 12:14:52;;;;;;;7.73;7.03;;;11.50;67.00;;;;;;5051783;28;20721;-90
2021/12/17 12:17:57;;;;;;;7.40;6.70;;;11.60;66.40;;;;;;5040557;28;20202;-90
2021/12/17 12:20:52;;;;;;;10.93;7.20;;;11.70;66.60;;;;;;4975093;28;20332;-90
2021/12/17 12:23:38;;;;;;;8.07;7.27;;;11.90;66.10;;;;;;4973710;28;20196;-90
2021/12/17 12:26:11;;;;;;;7.53;6.87;;;12.10;64.90;;;;;;5035320;28;20224;-90
2021/12/17 12:28:49;;;;;;;7.47;6.77;;;12.10;65.00;;;;;;5041515;28;20201;-92
2021/12/17 12:31:24;;;;;;;10.67;7.33;;;12.00;65.30;;;;;;5035707;28;20193;-91
2021/12/17 12:34:03;;;;;;;14.57;7.40;;;11.80;66.60;;;;;;5052618;28;20738;-90
2021/12/17 12:37:17;;;;;;;7.07;6.43;;;11.60;66.70;;;;;;5050330;28;20219;-88
2021/12/17 12:39:56;;;;;;;11.90;7.47;;;11.40;67.50;;;;;;5034666;28;20666;-89
2021/12/17 12:42:24;;;;;;;10.70;7.50;;;10.90;69.50;;;;;;5049718;28;20300;-89
2021/12/17 12:44:50;;;;;;;8.30;7.10;;;10.70;70.60;;;;;;5035347;28;20231;-89
2021/12/17 12:47:38;;;;;;;7.37;6.43;;;10.70;70.80;;;;;;5035424;28;20283;-89
2021/12/17 12:50:07;;;;;;;7.10;6.50;;;10.60;71.00;;;;;;5015165;28;20701;-89
2021/12/17 12:52:46;;;;;;;8.50;6.97;;;10.60;71.20;;;;;;5048409;28;20291;-89
2021/12/17 12:55:34;;;;;;;9.87;8.97;;;10.30;72.40;;;;;;5044025;28;20396;-89
2021/12/17 12:58:01;;;;;;;12.67;11.40;;;10.30;73.00;;;;;;5047890;28;20271;-88
2021/12/17 13:00:33;;;;;;;9.33;8.23;;;10.20;73.50;;;;;;5046427;28;20189;-89
2021/12/17 13:03:08;;;;;;;11.07;10.03;;;10.10;73.50;;;;;;5050298;28;20249;-89
2021/12/17 13:05:35;;;;;;;9.20;8.23;;;9.90;74.00;;;;;;5036337;28;20207;-89
2021/12/17 13:08:05;;;;;;;16.27;14.53;;;9.80;74.70;;;;;;5050507;28;20675;-88
2021/12/17 13:10:40;;;;;;;45.97;32.83;;;9.80;75.00;;;;;;5050079;28;20205;-89
2021/12/17 13:13:23;;;;;;;38.23;33.10;;;9.70;75.30;;;;;;5050549;28;20192;-89
2021/12/17 13:16:05;;;;;;;17.37;14.90;;;9.80;75.30;;;;;;5047501;28;20207;-89
2021/12/17 13:24:13;;;;;;;7.90;7.10;;;9.90;75.30;;;;;;5053018;28;20192;-87
2021/12/17 13:26:51;;;;;;;10.50;7.67;;;10.00;75.20;;;;;;5070085;28;20295;-88
2021/12/17 13:29:34;;;;;;;7.70;7.00;;;10.00;74.80;;;;;;5053630;28;20203;-90
2021/12/17 13:32:11;;;;;;;8.60;7.57;;;10.00;75.20;;;;;;5054199;28;20192;-90
2021/12/17 13:34:39;;;;;;;7.83;7.03;;;10.00;74.70;;;;;;5051520;28;20193;-88
2021/12/17 13:37:06;;;;;;;7.80;7.10;;;9.90;75.20;;;;;;5074521;28;20205;-89
2021/12/17 13:39:45;;;;;;;7.93;7.17;;;9.90;75.10;;;;;;5043039;28;20283;-90
2021/12/17 13:42:29;;;;;;;7.30;6.63;;;9.90;75.30;;;;;;5058562;28;20189;-90
2021/12/17 13:45:13;;;;;;;8.23;7.43;;;9.80;75.30;;;;;;5071910;28;20235;-89
2021/12/17 13:47:51;;;;;;;7.83;6.83;;;9.80;75.50;;;;;;5063339;28;20238;-89
2021/12/17 13:50:50;;;;;;;7.40;6.70;;;9.70;75.60;;;;;;5076538;28;20245;-88
2021/12/17 13:53:18;;;;;;;8.00;7.23;;;9.70;75.60;;;;;;5052680;28;20728;-91
2021/12/17 13:55:47;;;;;;;7.67;6.87;;;9.70;75.40;;;;;;5060788;28;20200;-89
2021/12/17 13:58:15;;;;;;;8.00;7.20;;;9.60;76.00;;;;;;5057617;28;20201;-88
2021/12/17 14:00:44;;;;;;;8.73;7.83;;;9.60;76.00;;;;;;5065307;28;20291;-89
2021/12/17 14:03:13;;;;;;;8.50;7.70;;;9.50;76.40;;;;;;5045196;28;20191;-90
2021/12/17 14:05:49;;;;;;;7.90;7.17;;;9.60;76.20;;;;;;5060387;28;20653;-90
2021/12/17 14:08:19;;;;;;;7.80;7.10;;;9.50;76.70;;;;;;5028260;28;20760;-89
2021/12/17 14:10:46;;;;;;;8.53;7.73;;;9.50;76.80;;;;;;5059941;28;20192;-89
2021/12/17 14:13:23;;;;;;;9.30;8.50;;;9.40;77.20;;;;;;5044256;28;20247;-90
2021/12/17 14:15:51;;;;;;;8.87;7.97;;;9.40;77.00;;;;;;5066486;28;20231;-89
2021/12/17 14:18:20;;;;;;;8.17;7.40;;;9.40;77.10;;;;;;5058690;28;20200;-89
2021/12/17 14:20:52;;;;;;;8.57;7.53;;;9.40;77.50;;;;;;5046251;28;20257;-90
2021/12/17 14:23:22;;;;;;;8.13;7.33;;;9.30;77.60;;;;;;5060371;28;20227;-90
2021/12/17 14:25:50;;;;;;;8.90;8.10;;;9.30;78.40;;;;;;5053767;28;20552;-89
2021/12/17 14:28:27;;;;;;;9.93;8.93;;;9.40;77.30;;;;;;5061064;28;20185;-90
2021/12/17 14:30:59;;;;;;;9.10;8.30;;;9.40;77.60;;;;;;5059755;28;20211;-89
2021/12/17 14:33:57;;;;;;;9.60;8.60;;;9.40;78.00;;;;;;5047597;28;20619;-89
2021/12/17 14:36:27;;;;;;;10.57;8.30;;;9.40;77.80;;;;;;5059382;28;20224;-90
2021/12/17 14:39:20;;;;;;;9.10;8.13;;;9.40;78.20;;;;;;5055943;28;20189;-90
2021/12/17 14:42:01;;;;;;;8.97;8.17;;;9.40;78.00;;;;;;5055384;28;20192;-90
2021/12/17 14:47:13;;;;;;;11.07;8.77;;;9.20;79.30;;;;;;5061564;28;20208;-90
2021/12/17 15:03:41;;;;;;;9.27;7.57;;;8.80;80.60;;;;;;5057331;28;20226;-91
2021/12/17 15:06:15;;;;;;;9.87;9.07;;;8.80;81.30;;;;;;5053479;28;20216;-90
2021/12/17 15:08:42;;;;;;;8.40;7.60;;;8.70;81.50;;;;;;5059284;28;20266;-90
2021/12/17 15:11:36;;;;;;;10.17;9.17;;;8.70;80.90;;;;;;5059025;28;20196;-89
2021/12/17 15:14:02;;;;;;;9.07;8.17;;;8.70;81.50;;;;;;5057613;28;20203;-89
2021/12/17 15:16:28;;;;;;;8.67;7.73;;;8.60;81.60;;;;;;5061402;28;20587;-90
2021/12/17 15:18:53;;;;;;;8.33;7.53;;;8.70;81.20;;;;;;5037213;28;20196;-90
2021/12/17 15:21:19;;;;;;;8.43;7.50;;;8.70;80.60;;;;;;5019452;28;20293;-90
2021/12/17 15:23:45;;;;;;;8.00;7.30;;;8.70;80.90;;;;;;5048758;28;20200;-90
2021/12/17 15:26:11;;;;;;;7.57;6.80;;;8.60;80.80;;;;;;5040684;28;20228;-90
2021/12/17 15:28:37;;;;;;;7.50;6.90;;;8.60;80.80;;;;;;5056114;28;20207;-89
2021/12/17 15:31:06;;;;;;;7.43;6.73;;;8.60;80.90;;;;;;5055971;28;20228;-90
2021/12/17 15:33:34;;;;;;;12.37;8.17;;;8.70;80.50;;;;;;5048055;28;20184;-90
2021/12/17 15:36:00;;;;;;;7.27;6.57;;;8.60;81.10;;;;;;5053872;28;20308;-90
2021/12/17 15:38:26;;;;;;;10.33;7.80;;;8.50;82.10;;;;;;5058413;28;20224;-90
2021/12/17 15:40:52;;;;;;;8.70;7.90;;;8.30;82.30;;;;;;5058501;28;20196;-90
2021/12/17 15:43:19;;;;;;;13.73;12.33;;;8.30;83.10;;;;;;5052475;28;20599;-90
2021/12/17 15:45:47;;;;;;;14.30;7.17;;;8.40;82.40;;;;;;5053170;28;20220;-89
2021/12/17 15:48:15;;;;;;;11.13;6.67;;;8.60;81.30;;;;;;5051419;28;20217;-89
2021/12/17 15:50:41;;;;;;;7.60;6.90;;;8.60;80.90;;;;;;5058067;28;20275;-90
2021/12/17 15:53:07;;;;;;;8.17;6.70;;;8.50;81.20;;;;;;5054425;28;20237;-90
2021/12/17 15:55:34;;;;;;;6.73;6.13;;;8.50;81.50;;;;;;5054122;28;20211;-90
2021/12/17 15:58:02;;;;;;;8.40;7.50;;;8.50;81.80;;;;;;5038704;28;20197;-90
2021/12/17 16:00:33;;;;;;;8.00;6.83;;;8.40;82.50;;;;;;5057421;28;20196;-90
2021/12/17 16:03:00;;;;;;;7.57;6.87;;;8.50;81.20;;;;;;5068282;28;20202;-89
2021/12/17 16:05:26;;;;;;;7.37;6.63;;;8.40;81.10;;;;;;5038831;28;20236;-85
2021/12/17 16:07:53;;;;;;;7.83;6.60;;;8.40;81.40;;;;;;5076349;28;20193;-90
2021/12/17 16:21:00;;;;;;;9.40;8.60;;;8.30;80.90;;;;;;5062951;28;20207;-89
2021/12/17 16:21:48;;;;;;;13.80;12.53;;;8.40;80.70;;;;;;5076639;28;20199;-89
2021/12/17 16:24:14;;;;;;;7.57;6.90;;;8.40;80.80;;;;;;5065648;28;20211;-90
2021/12/17 16:26:41;;;;;;;7.17;6.57;;;8.40;81.10;;;;;;5055159;28;20228;-90
2021/12/17 16:29:08;;;;;;;16.53;14.27;;;8.40;81.00;;;;;;5054372;28;20244;-93
2021/12/17 16:31:34;;;;;;;7.10;6.33;;;8.30;81.20;;;;;;5040107;28;20196;-90
2021/12/17 16:34:03;;;;;;;8.07;6.00;;;8.30;81.60;;;;;;5054257;28;20196;-89
2021/12/17 16:36:30;;;;;;;7.47;6.77;;;8.20;81.90;;;;;;5039397;28;20224;-88